Terminal Aerodrome Forecast
Issued by NWS

Home | Current Version | Previous Version | Text Only | Print | Product List | Glossary On
Versions: 1 2 3 4 5 6 7 8 9 10 11 12 13 14 15 16 17 18 19 20 21 22 23 24 25 26
000
FTUS43 KIND 230500
TAFBMG
TAF
KBMG 230523Z 2306/2406 00000KT 4SM BR BKN120
      TEMPO 2306/2310 1 1/2SM BR
     FM231300 VRB02KT P6SM SCT020 BKN120
     FM232000 VRB03KT P6SM SCT025 BKN120 PROB30 2320/2324 3SM TSRA
      BKN020CB
      AMD LTD TO CLD VIS AND WIND TIL 231300=

USA.gov is the U.S. government's official web portal to all federal, state and local government web resources and services.